sensor_id;sensor_type;location;lat;lon;timestamp;pressure;altitude;pressure_sealevel;temperature;humidity
39301;BME280;25019;42.626;23.380;2023-02-23T00:00:17;94266.78;;;5.57;70.09
39301;BME280;25019;42.626;23.380;2023-02-23T00:02:49;94271.13;;;5.51;70.28
39301;BME280;25019;42.626;23.380;2023-02-23T00:05:16;94241.09;;;5.15;71.39
39301;BME280;25019;42.626;23.380;2023-02-23T00:07:44;94286.69;;;5.34;72.56
39301;BME280;25019;42.626;23.380;2023-02-23T00:10:12;94237.16;;;4.80;72.78
39301;BME280;25019;42.626;23.380;2023-02-23T00:12:39;94292.06;;;5.21;74.19
39301;BME280;25019;42.626;23.380;2023-02-23T00:15:06;94275.97;;;5.10;73.88
39301;BME280;25019;42.626;23.380;2023-02-23T00:17:32;94229.34;;;4.74;73.90
39301;BME280;25019;42.626;23.380;2023-02-23T00:20:04;94283.50;;;5.07;74.14
39301;BME280;25019;42.626;23.380;2023-02-23T00:22:38;94272.66;;;4.97;74.12
39301;BME280;25019;42.626;23.380;2023-02-23T00:25:08;94281.16;;;4.99;74.34
39301;BME280;25019;42.626;23.380;2023-02-23T00:27:37;94287.97;;;5.06;74.75
39301;BME280;25019;42.626;23.380;2023-02-23T00:30:11;94300.53;;;5.04;74.55
39301;BME280;25019;42.626;23.380;2023-02-23T00:32:38;94279.38;;;4.92;74.89
39301;BME280;25019;42.626;23.380;2023-02-23T00:35:05;94298.16;;;4.96;75.53
39301;BME280;25019;42.626;23.380;2023-02-23T00:37:37;94296.44;;;4.83;75.86
39301;BME280;25019;42.626;23.380;2023-02-23T00:40:03;94296.69;;;4.75;76.15
39301;BME280;25019;42.626;23.380;2023-02-23T00:42:38;94195.66;;;4.07;76.37
39301;BME280;25019;42.626;23.380;2023-02-23T00:45:04;94295.47;;;4.77;76.62
39301;BME280;25019;42.626;23.380;2023-02-23T00:47:32;94214.50;;;4.29;75.83
39301;BME280;25019;42.626;23.380;2023-02-23T00:50:00;94288.81;;;4.75;76.27
39301;BME280;25019;42.626;23.380;2023-02-23T00:52:25;94266.09;;;4.55;75.99
39301;BME280;25019;42.626;23.380;2023-02-23T00:54:51;94290.41;;;4.76;76.09
39301;BME280;25019;42.626;23.380;2023-02-23T00:57:16;94290.41;;;4.76;76.19
39301;BME280;25019;42.626;23.380;2023-02-23T00:59:42;94293.09;;;4.69;76.11
39301;BME280;25019;42.626;23.380;2023-02-23T01:02:08;94291.91;;;4.72;76.40
39301;BME280;25019;42.626;23.380;2023-02-23T01:04:33;94293.94;;;4.70;75.63
39301;BME280;25019;42.626;23.380;2023-02-23T01:06:59;94234.47;;;4.37;75.61
39301;BME280;25019;42.626;23.380;2023-02-23T01:09:26;94281.81;;;4.62;76.54
39301;BME280;25019;42.626;23.380;2023-02-23T01:11:54;94290.47;;;4.69;76.15
39301;BME280;25019;42.626;23.380;2023-02-23T01:14:21;94200.44;;;4.16;76.25
39301;BME280;25019;42.626;23.380;2023-02-23T01:16:47;94290.31;;;4.64;76.40
39301;BME280;25019;42.626;23.380;2023-02-23T01:19:13;94236.13;;;4.31;77.09
39301;BME280;25019;42.626;23.380;2023-02-23T01:21:41;94248.84;;;4.34;76.95
39301;BME280;25019;42.626;23.380;2023-02-23T01:24:07;94218.25;;;4.14;77.10
39301;BME280;25019;42.626;23.380;2023-02-23T01:26:36;94284.94;;;4.52;77.63
39301;BME280;25019;42.626;23.380;2023-02-23T01:29:05;94284.94;;;4.52;78.03
39301;BME280;25019;42.626;23.380;2023-02-23T01:31:33;94273.44;;;4.46;77.61
39301;BME280;25019;42.626;23.380;2023-02-23T01:34:01;94280.06;;;4.56;77.74
39301;BME280;25019;42.626;23.380;2023-02-23T01:36:32;94278.03;;;4.58;77.93
39301;BME280;25019;42.626;23.380;2023-02-23T01:38:59;94281.81;;;4.62;78.03
39301;BME280;25019;42.626;23.380;2023-02-23T01:41:26;94232.88;;;4.35;77.60
39301;BME280;25019;42.626;23.380;2023-02-23T01:44:00;94279.16;;;4.69;77.23
39301;BME280;25019;42.626;23.380;2023-02-23T01:46:30;94262.03;;;4.59;77.16
39301;BME280;25019;42.626;23.380;2023-02-23T01:48:56;94267.63;;;4.70;76.79
39301;BME280;25019;42.626;23.380;2023-02-23T01:51:51;94269.66;;;4.68;76.54
39301;BME280;25019;42.626;23.380;2023-02-23T01:54:18;94227.38;;;4.37;77.27
39301;BME280;25019;42.626;23.380;2023-02-23T01:56:50;94160.41;;;3.89;76.88
39301;BME280;25019;42.626;23.380;2023-02-23T01:59:40;94271.88;;;4.64;77.05
39301;BME280;25019;42.626;23.380;2023-02-23T02:02:07;94265.06;;;4.56;76.98
39301;BME280;25019;42.626;23.380;2023-02-23T02:04:35;94275.34;;;4.64;77.17
39301;BME280;25019;42.626;23.380;2023-02-23T02:07:20;94187.53;;;4.08;77.81
39301;BME280;25019;42.626;23.380;2023-02-23T02:09:52;94276.38;;;4.63;77.44
39301;BME280;25019;42.626;23.380;2023-02-23T02:12:40;94269.25;;;4.64;77.22
39301;BME280;25019;42.626;23.380;2023-02-23T02:15:09;94268.25;;;4.65;78.08
39301;BME280;25019;42.626;23.380;2023-02-23T02:18:11;94269.25;;;4.64;77.41
39301;BME280;25019;42.626;23.380;2023-02-23T02:27:03;94267.34;;;4.53;78.03
39301;BME280;25019;42.626;23.380;2023-02-23T02:30:34;94208.75;;;4.13;77.56
39301;BME280;25019;42.626;23.380;2023-02-23T02:32:45;94267.34;;;4.53;77.47
39301;BME280;25019;42.626;23.380;2023-02-23T02:41:28;94262.88;;;4.53;77.68
39301;BME280;25019;42.626;23.380;2023-02-23T02:44:09;94263.88;;;4.52;77.91
39301;BME280;25019;42.626;23.380;2023-02-23T02:46:38;94268.72;;;4.55;78.09
39301;BME280;25019;42.626;23.380;2023-02-23T02:49:25;94203.28;;;4.15;77.98
39301;BME280;25019;42.626;23.380;2023-02-23T02:52:00;94251.69;;;4.32;78.07
39301;BME280;25019;42.626;23.380;2023-02-23T02:54:34;94202.94;;;4.04;78.24
39301;BME280;25019;42.626;23.380;2023-02-23T02:57:03;94266.34;;;4.47;78.25
39301;BME280;25019;42.626;23.380;2023-02-23T02:59:30;94262.94;;;4.46;77.28
39301;BME280;25019;42.626;23.380;2023-02-23T03:02:18;94247.41;;;4.38;77.96
39301;BME280;25019;42.626;23.380;2023-02-23T03:05:28;94259.53;;;4.39;78.24
39301;BME280;25019;42.626;23.380;2023-02-23T03:08:25;94246.66;;;4.31;78.07
39301;BME280;25019;42.626;23.380;2023-02-23T03:11:14;94264.59;;;4.41;78.10
39301;BME280;25019;42.626;23.380;2023-02-23T03:20:02;94284.38;;;4.11;78.69
39301;BME280;25019;42.626;23.380;2023-02-23T03:28:37;94226.19;;;3.69;79.77
39301;BME280;25019;42.626;23.380;2023-02-23T03:37:12;94284.25;;;3.93;80.50
39301;BME280;25019;42.626;23.380;2023-02-23T03:40:33;94284.31;;;3.86;80.92
39301;BME280;25019;42.626;23.380;2023-02-23T03:43:26;94174.72;;;3.09;81.50
39301;BME280;25019;42.626;23.380;2023-02-23T03:46:13;94288.41;;;3.75;82.48
39301;BME280;25019;42.626;23.380;2023-02-23T03:49:03;94286.56;;;3.75;81.68
39301;BME280;25019;42.626;23.380;2023-02-23T03:51:56;94278.28;;;3.72;82.36
39301;BME280;25019;42.626;23.380;2023-02-23T03:54:48;94241.44;;;3.40;82.18
39301;BME280;25019;42.626;23.380;2023-02-23T03:57:37;94223.53;;;3.17;82.45
39301;BME280;25019;42.626;23.380;2023-02-23T04:00:28;94291.28;;;3.53;82.79
39301;BME280;25019;42.626;23.380;2023-02-23T04:03:15;94290.47;;;3.53;83.22
39301;BME280;25019;42.626;23.380;2023-02-23T04:06:01;94241.28;;;3.21;83.59
39301;BME280;25019;42.626;23.380;2023-02-23T04:08:47;94294.31;;;3.50;83.56
39301;BME280;25019;42.626;23.380;2023-02-23T04:15:06;94303.63;;;3.46;83.85
39301;BME280;25019;42.626;23.380;2023-02-23T04:17:34;94296.16;;;3.43;84.29
39301;BME280;25019;42.626;23.380;2023-02-23T04:20:00;94246.34;;;3.09;84.57
39301;BME280;25019;42.626;23.380;2023-02-23T04:22:25;94297.19;;;3.42;84.09
39301;BME280;25019;42.626;23.380;2023-02-23T04:24:51;94303.25;;;3.36;84.40
39301;BME280;25019;42.626;23.380;2023-02-23T04:27:17;94299.41;;;3.32;84.85
39301;BME280;25019;42.626;23.380;2023-02-23T04:29:43;94298.00;;;3.29;84.76
39301;BME280;25019;42.626;23.380;2023-02-23T04:32:14;94292.56;;;3.24;85.05
39301;BME280;25019;42.626;23.380;2023-02-23T04:34:41;94297.22;;;3.22;85.24
39301;BME280;25019;42.626;23.380;2023-02-23T04:37:07;94248.63;;;2.92;85.19
39301;BME280;25019;42.626;23.380;2023-02-23T04:39:32;94297.81;;;3.24;85.81
39301;BME280;25019;42.626;23.380;2023-02-23T04:41:58;94267.19;;;2.91;85.83
39301;BME280;25019;42.626;23.380;2023-02-23T04:44:23;94291.97;;;3.08;85.94
39301;BME280;25019;42.626;23.380;2023-02-23T04:46:49;94303.47;;;3.07;86.19
39301;BME280;25019;42.626;23.380;2023-02-23T04:49:15;94302.06;;;3.05;86.42
39301;BME280;25019;42.626;23.380;2023-02-23T04:51:40;94300.47;;;2.97;86.98
39301;BME280;25019;42.626;23.380;2023-02-23T04:54:07;94304.91;;;2.96;87.23
39301;BME280;25019;42.626;23.380;2023-02-23T04:56:32;94281.09;;;2.84;87.54
39301;BME280;25019;42.626;23.380;2023-02-23T04:58:58;94288.19;;;2.77;87.56
39301;BME280;25019;42.626;23.380;2023-02-23T05:01:24;94305.72;;;2.83;87.38
39301;BME280;25019;42.626;23.380;2023-02-23T05:03:51;94308.34;;;2.83;88.07
39301;BME280;25019;42.626;23.380;2023-02-23T05:06:17;94241.16;;;2.49;88.10
39301;BME280;25019;42.626;23.380;2023-02-23T05:08:43;94306.31;;;2.85;88.28
39301;BME280;25019;42.626;23.380;2023-02-23T05:11:10;94298.47;;;2.79;88.70
39301;BME280;25019;42.626;23.380;2023-02-23T05:13:36;94300.88;;;2.80;88.62
39301;BME280;25019;42.626;23.380;2023-02-23T05:16:02;94283.75;;;2.71;88.20
39301;BME280;25019;42.626;23.380;2023-02-23T05:18:28;94304.31;;;2.81;88.62
39301;BME280;25019;42.626;23.380;2023-02-23T05:21:03;94307.94;;;2.87;88.90
39301;BME280;25019;42.626;23.380;2023-02-23T05:23:31;94309.38;;;2.89;88.94
39301;BME280;25019;42.626;23.380;2023-02-23T05:26:00;94267.19;;;2.64;88.74
39301;BME280;25019;42.626;23.380;2023-02-23T05:28:29;94319.47;;;2.92;88.49
39301;BME280;25019;42.626;23.380;2023-02-23T05:30:54;94174.63;;;2.03;88.41
39301;BME280;25019;42.626;23.380;2023-02-23T05:33:20;94316.41;;;2.89;89.05
39301;BME280;25019;42.626;23.380;2023-02-23T05:35:47;94325.72;;;2.91;88.83
39301;BME280;25019;42.626;23.380;2023-02-23T05:38:12;94320.44;;;2.84;89.50
39301;BME280;25019;42.626;23.380;2023-02-23T05:40:38;94247.22;;;2.36;89.54
39301;BME280;25019;42.626;23.380;2023-02-23T05:43:05;94332.38;;;2.87;90.14
39301;BME280;25019;42.626;23.380;2023-02-23T05:45:30;94329.13;;;2.85;90.45
39301;BME280;25019;42.626;23.380;2023-02-23T05:47:56;94336.00;;;2.93;90.45
39301;BME280;25019;42.626;23.380;2023-02-23T05:50:22;94340.84;;;2.96;90.18
39301;BME280;25019;42.626;23.380;2023-02-23T05:52:47;94339.00;;;2.96;90.05
39301;BME280;25019;42.626;23.380;2023-02-23T05:55:13;94339.03;;;3.03;89.19
39301;BME280;25019;42.626;23.380;2023-02-23T05:57:39;94322.06;;;2.99;89.48
39301;BME280;25019;42.626;23.380;2023-02-23T06:00:10;94341.84;;;3.15;89.22
39301;BME280;25019;42.626;23.380;2023-02-23T06:02:37;94342.22;;;3.25;89.16
39301;BME280;25019;42.626;23.380;2023-02-23T06:05:04;94349.28;;;3.32;88.69
39301;BME280;25019;42.626;23.380;2023-02-23T06:07:30;94343.44;;;3.29;88.03
39301;BME280;25019;42.626;23.380;2023-02-23T06:09:56;94306.72;;;3.16;87.90
39301;BME280;25019;42.626;23.380;2023-02-23T06:12:21;94357.75;;;3.47;87.33
39301;BME280;25019;42.626;23.380;2023-02-23T06:14:48;94357.34;;;3.57;87.12
39301;BME280;25019;42.626;23.380;2023-02-23T06:17:15;94345.03;;;3.51;86.78
39301;BME280;25019;42.626;23.380;2023-02-23T06:19:41;94359.91;;;3.70;86.88
39301;BME280;25019;42.626;23.380;2023-02-23T06:22:07;94355.25;;;3.72;86.00
39301;BME280;25019;42.626;23.380;2023-02-23T06:24:32;94360.66;;;3.91;86.04
39301;BME280;25019;42.626;23.380;2023-02-23T06:26:59;94361.63;;;4.03;85.38
39301;BME280;25019;42.626;23.380;2023-02-23T06:29:24;94366.25;;;4.15;85.04
39301;BME280;25019;42.626;23.380;2023-02-23T06:31:50;94309.56;;;3.80;84.69
39301;BME280;25019;42.626;23.380;2023-02-23T06:34:16;94368.44;;;4.25;84.05
39301;BME280;25019;42.626;23.380;2023-02-23T06:36:42;94363.34;;;4.30;83.69
39301;BME280;25019;42.626;23.380;2023-02-23T06:39:09;94343.56;;;4.20;83.07
39301;BME280;25019;42.626;23.380;2023-02-23T06:41:35;94362.31;;;4.38;83.46
39301;BME280;25019;42.626;23.380;2023-02-23T06:44:00;94292.09;;;3.99;82.93
39301;BME280;25019;42.626;23.380;2023-02-23T06:46:26;94370.09;;;4.58;82.42
39301;BME280;25019;42.626;23.380;2023-02-23T06:48:57;94187.50;;;3.44;82.33
39301;BME280;25019;42.626;23.380;2023-02-23T06:51:24;94375.22;;;4.78;82.72
39301;BME280;25019;42.626;23.380;2023-02-23T06:53:50;94339.53;;;4.57;81.27
39301;BME280;25019;42.626;23.380;2023-02-23T06:56:19;94258.69;;;4.13;80.97
39301;BME280;25019;42.626;23.380;2023-02-23T06:58:45;94377.72;;;4.98;80.40
39301;BME280;25019;42.626;23.380;2023-02-23T07:01:12;94375.03;;;5.05;79.87
39301;BME280;25019;42.626;23.380;2023-02-23T07:03:38;94341.78;;;4.85;80.10
39301;BME280;25019;42.626;23.380;2023-02-23T07:06:04;94375.72;;;5.19;80.06
39301;BME280;25019;42.626;23.380;2023-02-23T07:08:33;94377.16;;;5.21;79.62
39301;BME280;25019;42.626;23.380;2023-02-23T07:11:10;94354.25;;;5.22;78.71
39301;BME280;25019;42.626;23.380;2023-02-23T07:13:38;94369.28;;;5.40;78.95
39301;BME280;25019;42.626;23.380;2023-02-23T07:16:05;94371.00;;;5.53;78.61
39301;BME280;25019;42.626;23.380;2023-02-23T07:18:31;94339.53;;;5.39;77.96
39301;BME280;25019;42.626;23.380;2023-02-23T07:20:57;94321.72;;;5.35;77.85
39301;BME280;25019;42.626;23.380;2023-02-23T07:23:23;94369.94;;;5.79;77.88
39301;BME280;25019;42.626;23.380;2023-02-23T07:25:49;94300.81;;;5.40;77.50
39301;BME280;25019;42.626;23.380;2023-02-23T07:28:15;94311.81;;;5.55;77.38
39301;BME280;25019;42.626;23.380;2023-02-23T07:30:41;94325.13;;;5.79;76.76
39301;BME280;25019;42.626;23.380;2023-02-23T07:33:06;94375.31;;;6.10;76.73
39301;BME280;25019;42.626;23.380;2023-02-23T07:35:32;94308.34;;;5.74;77.65
39301;BME280;25019;42.626;23.380;2023-02-23T07:37:57;94285.81;;;5.59;78.09
39301;BME280;25019;42.626;23.380;2023-02-23T07:40:23;94320.22;;;5.83;78.04
39301;BME280;25019;42.626;23.380;2023-02-23T07:42:50;94353.69;;;6.20;77.90
39301;BME280;25019;42.626;23.380;2023-02-23T07:45:16;94273.44;;;5.78;77.02
39301;BME280;25019;42.626;23.380;2023-02-23T07:47:42;94357.38;;;6.49;77.04
39301;BME280;25019;42.626;23.380;2023-02-23T07:50:08;94337.03;;;6.38;76.60
39301;BME280;25019;42.626;23.380;2023-02-23T07:52:38;94350.16;;;6.56;76.70
39301;BME280;25019;42.626;23.380;2023-02-23T07:55:06;94332.97;;;6.54;76.86
39301;BME280;25019;42.626;23.380;2023-02-23T07:57:32;94340.47;;;6.69;76.99
39301;BME280;25019;42.626;23.380;2023-02-23T07:59:58;94334.88;;;6.77;75.92
39301;BME280;25019;42.626;23.380;2023-02-23T08:02:23;94361.44;;;6.94;76.29
39301;BME280;25019;42.626;23.380;2023-02-23T08:04:50;94358.25;;;7.04;75.67
39301;BME280;25019;42.626;23.380;2023-02-23T08:07:18;94263.91;;;6.57;74.67
39301;BME280;25019;42.626;23.380;2023-02-23T08:09:44;94252.31;;;6.58;74.26
39301;BME280;25019;42.626;23.380;2023-02-23T08:12:10;94359.63;;;7.30;72.74
39301;BME280;25019;42.626;23.380;2023-02-23T08:14:36;94346.66;;;7.29;72.44
39301;BME280;25019;42.626;23.380;2023-02-23T08:17:02;94360.00;;;7.46;72.34
39301;BME280;25019;42.626;23.380;2023-02-23T08:19:27;94344.59;;;7.55;72.04
39301;BME280;25019;42.626;23.380;2023-02-23T08:21:55;94347.50;;;7.65;72.16
39301;BME280;25019;42.626;23.380;2023-02-23T08:24:21;94269.16;;;7.23;71.69
39301;BME280;25019;42.626;23.380;2023-02-23T08:26:47;94346.53;;;7.83;72.00
39301;BME280;25019;42.626;23.380;2023-02-23T08:29:14;94332.28;;;7.84;72.00
39301;BME280;25019;42.626;23.380;2023-02-23T08:31:39;94343.28;;;8.05;71.94
39301;BME280;25019;42.626;23.380;2023-02-23T08:34:05;94334.53;;;8.04;71.48
39301;BME280;25019;42.626;23.380;2023-02-23T08:36:31;94327.03;;;8.13;70.44
39301;BME280;25019;42.626;23.380;2023-02-23T08:38:56;94269.63;;;7.85;69.58
39301;BME280;25019;42.626;23.380;2023-02-23T08:41:22;94349.75;;;8.50;69.12
39301;BME280;25019;42.626;23.380;2023-02-23T08:43:48;94355.47;;;8.59;68.71
39301;BME280;25019;42.626;23.380;2023-02-23T08:46:13;94350.75;;;8.61;68.73
39301;BME280;25019;42.626;23.380;2023-02-23T08:48:41;94338.88;;;8.63;68.32
39301;BME280;25019;42.626;23.380;2023-02-23T08:51:07;94268.69;;;8.32;67.74
39301;BME280;25019;42.626;23.380;2023-02-23T08:53:33;94351.50;;;8.90;67.74
39301;BME280;25019;42.626;23.380;2023-02-23T08:56:00;94343.97;;;8.99;67.59
39301;BME280;25019;42.626;23.380;2023-02-23T08:58:27;94329.69;;;9.00;67.10
39301;BME280;25019;42.626;23.380;2023-02-23T09:00:53;94335.81;;;9.18;66.95
39301;BME280;25019;42.626;23.380;2023-02-23T09:03:19;94357.16;;;9.28;66.86
39301;BME280;25019;42.626;23.380;2023-02-23T09:05:45;94339.81;;;9.20;66.25
39301;BME280;25019;42.626;23.380;2023-02-23T09:08:12;94340.63;;;9.38;65.69
39301;BME280;25019;42.626;23.380;2023-02-23T09:10:39;94253.78;;;9.06;65.75
39301;BME280;25019;42.626;23.380;2023-02-23T09:13:05;94341.16;;;9.74;64.76
39301;BME280;25019;42.626;23.380;2023-02-23T09:15:31;94343.22;;;9.72;64.63
39301;BME280;25019;42.626;23.380;2023-02-23T09:18:00;94340.25;;;9.85;63.86
39301;BME280;25019;42.626;23.380;2023-02-23T09:20:26;94340.97;;;9.81;64.14
39301;BME280;25019;42.626;23.380;2023-02-23T09:22:52;94336.97;;;9.78;64.04
39301;BME280;25019;42.626;23.380;2023-02-23T09:25:19;94337.13;;;9.71;63.46
39301;BME280;25019;42.626;23.380;2023-02-23T09:27:48;94333.78;;;9.98;63.01
39301;BME280;25019;42.626;23.380;2023-02-23T09:30:15;94332.34;;;10.13;62.42
39301;BME280;25019;42.626;23.380;2023-02-23T09:32:48;94344.38;;;10.20;62.32
39301;BME280;25019;42.626;23.380;2023-02-23T09:35:15;94329.09;;;10.28;61.60
39301;BME280;25019;42.626;23.380;2023-02-23T09:37:50;94334.28;;;10.40;60.89
39301;BME280;25019;42.626;23.380;2023-02-23T09:40:22;94341.31;;;10.51;60.88
39301;BME280;25019;42.626;23.380;2023-02-23T09:43:13;94323.09;;;10.60;60.40
39301;BME280;25019;42.626;23.380;2023-02-23T09:45:54;94335.44;;;10.71;59.47
39301;BME280;25019;42.626;23.380;2023-02-23T09:48:25;94339.16;;;10.75;59.06
39301;BME280;25019;42.626;23.380;2023-02-23T09:50:54;94338.38;;;10.75;58.59
39301;BME280;25019;42.626;23.380;2023-02-23T09:55:50;94335.88;;;10.90;57.85
39301;BME280;25019;42.626;23.380;2023-02-23T09:58:21;94331.66;;;10.94;57.77
39301;BME280;25019;42.626;23.380;2023-02-23T10:04:12;94333.41;;;11.11;56.80
39301;BME280;25019;42.626;23.380;2023-02-23T10:06:43;94327.31;;;11.16;56.33
39301;BME280;25019;42.626;23.380;2023-02-23T10:12:14;94327.75;;;11.35;55.70
39301;BME280;25019;42.626;23.380;2023-02-23T10:17:42;94314.03;;;11.53;55.67
39301;BME280;25019;42.626;23.380;2023-02-23T10:22:49;94312.28;;;11.69;55.07
39301;BME280;25019;42.626;23.380;2023-02-23T10:25:22;94293.94;;;11.68;55.00
39301;BME280;25019;42.626;23.380;2023-02-23T10:27:49;94298.53;;;11.83;54.29
39301;BME280;25019;42.626;23.380;2023-02-23T10:30:33;94304.16;;;11.92;54.25
39301;BME280;25019;42.626;23.380;2023-02-23T10:35:28;94297.28;;;12.01;53.72
39301;BME280;25019;42.626;23.380;2023-02-23T10:37:55;94289.38;;;12.11;54.03
39301;BME280;25019;42.626;23.380;2023-02-23T10:40:23;94284.34;;;12.20;53.11
39301;BME280;25019;42.626;23.380;2023-02-23T10:42:50;94281.72;;;12.31;53.07
39301;BME280;25019;42.626;23.380;2023-02-23T10:45:20;94285.16;;;12.31;52.94
39301;BME280;25019;42.626;23.380;2023-02-23T10:47:56;94284.94;;;12.43;52.45
39301;BME280;25019;42.626;23.380;2023-02-23T10:50:24;94224.69;;;12.21;52.29
39301;BME280;25019;42.626;23.380;2023-02-23T10:53:03;94283.94;;;12.65;52.57
39301;BME280;25019;42.626;23.380;2023-02-23T10:55:35;94275.94;;;12.65;51.81
39301;BME280;25019;42.626;23.380;2023-02-23T10:58:07;94274.88;;;12.76;51.57
39301;BME280;25019;42.626;23.380;2023-02-23T11:00:37;94198.66;;;12.34;50.58
39301;BME280;25019;42.626;23.380;2023-02-23T11:03:37;94269.56;;;12.92;50.69
39301;BME280;25019;42.626;23.380;2023-02-23T11:06:01;94258.09;;;12.96;49.95
39301;BME280;25019;42.626;23.380;2023-02-23T11:08:31;94268.78;;;13.01;50.34
39301;BME280;25019;42.626;23.380;2023-02-23T11:13:25;94189.63;;;12.66;50.41
39301;BME280;25019;42.626;23.380;2023-02-23T11:18:36;94256.25;;;12.92;50.20
39301;BME280;25019;42.626;23.380;2023-02-23T11:21:02;94248.25;;;12.92;50.77
39301;BME280;25019;42.626;23.380;2023-02-23T11:23:34;94229.56;;;12.97;50.27
39301;BME280;25019;42.626;23.380;2023-02-23T11:26:03;94150.72;;;12.59;49.57
39301;BME280;25019;42.626;23.380;2023-02-23T11:28:35;94242.31;;;13.57;49.21
39301;BME280;25019;42.626;23.380;2023-02-23T11:31:18;94239.09;;;13.75;49.11
39301;BME280;25019;42.626;23.380;2023-02-23T11:33:45;94224.59;;;13.92;49.11
39301;BME280;25019;42.626;23.380;2023-02-23T11:36:17;94226.94;;;14.14;47.24
39301;BME280;25019;42.626;23.380;2023-02-23T11:39:19;94232.19;;;14.30;46.88
39301;BME280;25019;42.626;23.380;2023-02-23T11:44:34;94229.38;;;14.50;46.13
39301;BME280;25019;42.626;23.380;2023-02-23T11:47:00;94218.09;;;14.64;45.21
39301;BME280;25019;42.626;23.380;2023-02-23T11:49:32;94218.00;;;14.79;44.94
39301;BME280;25019;42.626;23.380;2023-02-23T11:52:01;94148.88;;;14.22;45.35
39301;BME280;25019;42.626;23.380;2023-02-23T11:54:32;94196.22;;;14.57;45.74
39301;BME280;25019;42.626;23.380;2023-02-23T11:56:58;94215.47;;;14.93;45.76
39301;BME280;25019;42.626;23.380;2023-02-23T11:59:32;94091.59;;;14.04;45.25
39301;BME280;25019;42.626;23.380;2023-02-23T12:02:24;94214.16;;;14.51;46.25
39301;BME280;25019;42.626;23.380;2023-02-23T12:05:17;94207.00;;;14.41;46.67
39301;BME280;25019;42.626;23.380;2023-02-23T12:10:41;94207.72;;;14.57;47.38
39301;BME280;25019;42.626;23.380;2023-02-23T12:13:34;94210.56;;;14.76;46.63
39301;BME280;25019;42.626;23.380;2023-02-23T12:16:55;94207.81;;;14.81;46.96
39301;BME280;25019;42.626;23.380;2023-02-23T12:24:43;94208.09;;;14.80;46.96
39301;BME280;25019;42.626;23.380;2023-02-23T12:27:34;94205.06;;;14.92;46.63
39301;BME280;25019;42.626;23.380;2023-02-23T12:30:21;94195.22;;;15.17;46.27
39301;BME280;25019;42.626;23.380;2023-02-23T12:33:11;94194.38;;;15.21;45.99
39301;BME280;25019;42.626;23.380;2023-02-23T12:38:22;94199.75;;;15.46;45.56
39301;BME280;25019;42.626;23.380;2023-02-23T12:40:58;94119.69;;;15.01;45.21
39301;BME280;25019;42.626;23.380;2023-02-23T12:43:43;94200.44;;;15.56;45.36
39301;BME280;25019;42.626;23.380;2023-02-23T12:46:19;94202.63;;;15.79;44.75
39301;BME280;25019;42.626;23.380;2023-02-23T12:52:11;94192.41;;;16.05;44.28
39301;BME280;25019;42.626;23.380;2023-02-23T12:54:35;94199.31;;;16.11;44.22
39301;BME280;25019;42.626;23.380;2023-02-23T12:57:37;94196.72;;;16.25;44.03
39301;BME280;25019;42.626;23.380;2023-02-23T13:08:54;94174.56;;;16.20;42.96
39301;BME280;25019;42.626;23.380;2023-02-23T13:14:52;94134.56;;;16.04;42.85
39301;BME280;25019;42.626;23.380;2023-02-23T13:20:25;94157.38;;;16.01;42.82
39301;BME280;25019;42.626;23.380;2023-02-23T13:29:09;94183.19;;;16.36;41.87
39301;BME280;25019;42.626;23.380;2023-02-23T13:31:38;94188.38;;;16.08;42.09
39301;BME280;25019;42.626;23.380;2023-02-23T13:34:09;94187.66;;;16.21;42.24
39301;BME280;25019;42.626;23.380;2023-02-23T13:36:36;94168.81;;;16.26;42.27
39301;BME280;25019;42.626;23.380;2023-02-23T13:42:18;94058.59;;;15.56;42.25
39301;BME280;25019;42.626;23.380;2023-02-23T13:47:50;94174.97;;;16.46;41.69
39301;BME280;25019;42.626;23.380;2023-02-23T13:50:28;94172.72;;;16.53;41.69
39301;BME280;25019;42.626;23.380;2023-02-23T13:53:00;94175.72;;;16.32;41.32
39301;BME280;25019;42.626;23.380;2023-02-23T13:55:36;94179.63;;;16.40;41.13
39301;BME280;25019;42.626;23.380;2023-02-23T13:58:25;94185.13;;;16.49;41.34
39301;BME280;25019;42.626;23.380;2023-02-23T14:01:10;94180.50;;;16.55;41.37
39301;BME280;25019;42.626;23.380;2023-02-23T14:06:40;94173.16;;;16.60;40.66
39301;BME280;25019;42.626;23.380;2023-02-23T14:09:20;94178.53;;;16.41;40.86
39301;BME280;25019;42.626;23.380;2023-02-23T14:12:22;94178.66;;;16.31;40.99
39301;BME280;25019;42.626;23.380;2023-02-23T14:14:48;94153.91;;;16.01;41.40
39301;BME280;25019;42.626;23.380;2023-02-23T14:22:27;94129.44;;;15.16;44.53
39301;BME280;25019;42.626;23.380;2023-02-23T14:27:58;94187.88;;;15.57;45.22
39301;BME280;25019;42.626;23.380;2023-02-23T14:30:29;94183.38;;;15.28;46.10
39301;BME280;25019;42.626;23.380;2023-02-23T14:39:14;94186.50;;;15.06;46.63
39301;BME280;25019;42.626;23.380;2023-02-23T14:41:57;94185.25;;;14.98;47.22
39301;BME280;25019;42.626;23.380;2023-02-23T14:44:28;94192.78;;;14.91;47.04
39301;BME280;25019;42.626;23.380;2023-02-23T14:47:15;94196.38;;;14.76;47.28
39301;BME280;25019;42.626;23.380;2023-02-23T14:49:49;94200.97;;;14.70;47.72
39301;BME280;25019;42.626;23.380;2023-02-23T14:52:22;94202.34;;;14.62;47.89
39301;BME280;25019;42.626;23.380;2023-02-23T14:55:12;94197.09;;;14.47;47.99
39301;BME280;25019;42.626;23.380;2023-02-23T14:57:41;94183.41;;;14.08;48.39
39301;BME280;25019;42.626;23.380;2023-02-23T15:02:40;94189.34;;;14.00;48.72
39301;BME280;25019;42.626;23.380;2023-02-23T15:05:17;94203.56;;;13.80;49.03
39301;BME280;25019;42.626;23.380;2023-02-23T15:07:43;94203.03;;;13.78;49.54
39301;BME280;25019;42.626;23.380;2023-02-23T15:10:37;94214.09;;;13.45;50.18
39301;BME280;25019;42.626;23.380;2023-02-23T15:13:09;94221.00;;;13.36;50.42
39301;BME280;25019;42.626;23.380;2023-02-23T15:15:40;94204.50;;;13.18;50.45
39301;BME280;25019;42.626;23.380;2023-02-23T15:18:21;94227.69;;;13.18;50.80
39301;BME280;25019;42.626;23.380;2023-02-23T15:20:49;94217.59;;;12.99;51.05